Terminal Aerodrome Forecast
Issued by NWS

Home | Current Version | Previous Version | Text Only | Print | Product List | Glossary On
Versions: 1 2 3 4 5 6 7 8 9 10 11 12 13 14 15 16 17 18 19 20 21 22 23 24
000
FTPQ31 PGUM 242332
TAFTKK
TAF
PTKK 242332Z 2500/2524 05011KT P6SM VCSH SCT014 BKN120
      TEMPO 2500/2502 05011G18KT 4SM SHRA BKN014=

USA.gov is the U.S. government's official web portal to all federal, state and local government web resources and services.